sensor_id;sensor_type;location;lat;lon;timestamp;pressure;altitude;pressure_sealevel;temperature;humidity
68508;BME280;55510;49.560;19.090;2023-03-03T09:09:45;96621.75;;;27.41;17.14
68508;BME280;55510;49.560;19.090;2023-03-03T09:12:47;96629.09;;;27.82;16.98
68508;BME280;55510;49.560;19.090;2023-03-03T09:15:48;96619.31;;;28.13;16.93
68508;BME280;55510;49.560;19.090;2023-03-03T09:18:49;96606.78;;;28.28;16.29
68508;BME280;55510;49.560;19.090;2023-03-03T09:21:55;96602.22;;;26.86;17.11
68508;BME280;55510;49.560;19.090;2023-03-03T09:24:58;96617.06;;;25.64;18.25
68508;BME280;55510;49.560;19.090;2023-03-03T09:28:00;96606.91;;;25.52;18.05
68508;BME280;55510;49.560;19.090;2023-03-03T09:34:23;96617.97;;;24.92;19.61
68508;BME280;55510;49.560;19.090;2023-03-03T09:37:36;96612.47;;;22.66;20.80
68508;BME280;55510;49.560;19.090;2023-03-03T09:47:38;96607.53;;;23.12;21.25
68508;BME280;55510;49.560;19.090;2023-03-03T10:04:52;96587.00;;;26.72;17.45
68508;BME280;55510;49.560;19.090;2023-03-03T10:08:35;96590.88;;;27.53;17.39
68508;BME280;55510;49.560;19.090;2023-03-03T10:21:57;96588.25;;;26.87;17.42
68508;BME280;55510;49.560;19.090;2023-03-03T10:25:37;96588.75;;;26.40;17.42
68508;BME280;55510;49.560;19.090;2023-03-03T10:38:30;96584.03;;;25.78;18.33
68508;BME280;55510;49.560;19.090;2023-03-03T10:48:38;96591.13;;;23.92;20.51
68508;BME280;55510;49.560;19.090;2023-03-03T10:55:07;96592.00;;;23.57;20.89
68508;BME280;55510;49.560;19.090;2023-03-03T11:01:46;96587.16;;;24.49;20.00
68508;BME280;55510;49.560;19.090;2023-03-03T11:15:46;96588.16;;;23.58;19.90
68508;BME280;55510;49.560;19.090;2023-03-03T11:32:13;96604.81;;;22.77;21.12
68508;BME280;55510;49.560;19.090;2023-03-03T11:35:21;96604.59;;;22.47;21.96
68508;BME280;55510;49.560;19.090;2023-03-03T11:38:39;96600.94;;;21.03;23.04
68508;BME280;55510;49.560;19.090;2023-03-03T11:44:54;96591.97;;;20.14;24.32
68508;BME280;55510;49.560;19.090;2023-03-03T11:48:00;96589.06;;;19.50;25.41
68508;BME280;55510;49.560;19.090;2023-03-03T11:51:10;96588.28;;;19.49;25.47
68508;BME280;55510;49.560;19.090;2023-03-03T12:00:55;96590.13;;;18.96;26.03
68508;BME280;55510;49.560;19.090;2023-03-03T12:04:09;96588.69;;;17.09;27.54
68508;BME280;55510;49.560;19.090;2023-03-03T12:24:17;96584.66;;;17.71;28.30
68508;BME280;55510;49.560;19.090;2023-03-03T12:27:51;96589.69;;;18.51;27.13
68508;BME280;55510;49.560;19.090;2023-03-03T12:34:37;96584.69;;;18.63;26.85
68508;BME280;55510;49.560;19.090;2023-03-03T12:37:56;96593.50;;;18.69;26.05
68508;BME280;55510;49.560;19.090;2023-03-03T12:41:09;96591.69;;;18.21;26.54
68508;BME280;55510;49.560;19.090;2023-03-03T12:47:40;96599.19;;;17.40;28.29
68508;BME280;55510;49.560;19.090;2023-03-03T12:51:02;96600.22;;;16.70;29.02
68508;BME280;55510;49.560;19.090;2023-03-03T13:10:51;96616.66;;;11.68;37.66
68508;BME280;55510;49.560;19.090;2023-03-03T13:14:03;96614.66;;;10.61;40.17
68508;BME280;55510;49.560;19.090;2023-03-03T13:17:37;96606.97;;;9.70;42.55
68508;BME280;55510;49.560;19.090;2023-03-03T13:20:47;96604.16;;;8.94;45.21
68508;BME280;55510;49.560;19.090;2023-03-03T13:24:00;96603.38;;;8.25;47.02
68508;BME280;55510;49.560;19.090;2023-03-03T13:27:06;96610.03;;;7.79;48.43
68508;BME280;55510;49.560;19.090;2023-03-03T13:30:41;96600.38;;;7.22;49.75
68508;BME280;55510;49.560;19.090;2023-03-03T13:33:35;96602.91;;;6.85;51.27
68508;BME280;55510;49.560;19.090;2023-03-03T13:36:48;96607.84;;;6.35;52.59
68508;BME280;55510;49.560;19.090;2023-03-03T13:40:05;96604.53;;;5.94;53.64
68508;BME280;55510;49.560;19.090;2023-03-03T13:43:25;96610.69;;;5.61;54.22
68508;BME280;55510;49.560;19.090;2023-03-03T13:56:11;96609.28;;;4.58;60.53
68508;BME280;55510;49.560;19.090;2023-03-03T13:59:36;96606.59;;;4.51;60.62
68508;BME280;55510;49.560;19.090;2023-03-03T14:06:22;96603.13;;;4.30;61.65
68508;BME280;55510;49.560;19.090;2023-03-03T14:12:59;96602.03;;;4.18;62.07
68508;BME280;55510;49.560;19.090;2023-03-03T14:19:30;96588.75;;;3.84;63.78
68508;BME280;55510;49.560;19.090;2023-03-03T14:22:46;96590.38;;;3.85;64.48
68508;BME280;55510;49.560;19.090;2023-03-03T14:25:58;96581.91;;;3.90;63.82
68508;BME280;55510;49.560;19.090;2023-03-03T14:29:35;96579.16;;;4.18;64.80
68508;BME280;55510;49.560;19.090;2023-03-03T14:32:35;96570.81;;;4.08;63.05
68508;BME280;55510;49.560;19.090;2023-03-03T14:35:39;96568.16;;;4.01;63.69
68508;BME280;55510;49.560;19.090;2023-03-03T14:38:43;96579.25;;;3.90;63.86
68508;BME280;55510;49.560;19.090;2023-03-03T14:41:44;96574.75;;;3.77;64.32
68508;BME280;55510;49.560;19.090;2023-03-03T14:47:46;96582.03;;;3.75;64.12
68508;BME280;55510;49.560;19.090;2023-03-03T14:51:16;96575.88;;;3.61;64.25
68508;BME280;55510;49.560;19.090;2023-03-03T14:54:27;96577.38;;;3.42;64.39
68508;BME280;55510;49.560;19.090;2023-03-03T14:57:47;96573.91;;;3.06;65.50
68508;BME280;55510;49.560;19.090;2023-03-03T15:10:45;96583.06;;;1.41;71.79
68508;BME280;55510;49.560;19.090;2023-03-03T15:13:46;96574.72;;;1.08;72.78
68508;BME280;55510;49.560;19.090;2023-03-03T15:16:46;96588.84;;;0.83;74.57
68508;BME280;55510;49.560;19.090;2023-03-03T15:26:55;96588.19;;;0.11;79.11
68508;BME280;55510;49.560;19.090;2023-03-03T15:30:19;96588.25;;;0.03;79.98
68508;BME280;55510;49.560;19.090;2023-03-03T15:33:54;96590.88;;;-0.05;80.06
68508;BME280;55510;49.560;19.090;2023-03-03T15:37:06;96594.38;;;-0.13;80.73
68508;BME280;55510;49.560;19.090;2023-03-03T15:41:05;96598.31;;;-0.25;81.86
68508;BME280;55510;49.560;19.090;2023-03-03T15:44:05;96598.38;;;-0.42;82.90
68508;BME280;55510;49.560;19.090;2023-03-03T15:47:20;96595.50;;;-0.55;83.67
68508;BME280;55510;49.560;19.090;2023-03-03T16:03:41;96614.31;;;-0.93;87.50
68508;BME280;55510;49.560;19.090;2023-03-03T16:07:05;96617.78;;;-1.01;87.22
68508;BME280;55510;49.560;19.090;2023-03-03T16:20:22;96626.91;;;-1.22;89.23
68508;BME280;55510;49.560;19.090;2023-03-03T16:26:53;96619.72;;;-1.28;90.71
68508;BME280;55510;49.560;19.090;2023-03-03T16:33:43;96630.81;;;-1.26;90.77
68508;BME280;55510;49.560;19.090;2023-03-03T16:40:18;96630.34;;;-1.29;90.51
68508;BME280;55510;49.560;19.090;2023-03-03T16:51:02;96655.63;;;-1.30;91.49
68508;BME280;55510;49.560;19.090;2023-03-03T16:54:24;96657.25;;;-1.29;91.28
68508;BME280;55510;49.560;19.090;2023-03-03T16:57:38;96657.13;;;-1.27;91.18
68508;BME280;55510;49.560;19.090;2023-03-03T17:00:51;96658.56;;;-1.25;91.72
68508;BME280;55510;49.560;19.090;2023-03-03T17:03:59;96660.19;;;-1.24;91.27
68508;BME280;55510;49.560;19.090;2023-03-03T17:10:24;96662.00;;;-1.24;91.54
68508;BME280;55510;49.560;19.090;2023-03-03T17:17:34;96665.28;;;-1.22;91.86
68508;BME280;55510;49.560;19.090;2023-03-03T17:20:47;96666.59;;;-1.18;91.90
68508;BME280;55510;49.560;19.090;2023-03-03T17:27:45;96672.78;;;-1.19;91.03
68508;BME280;55510;49.560;19.090;2023-03-03T17:41:02;96670.66;;;-1.24;91.45
68508;BME280;55510;49.560;19.090;2023-03-03T17:44:28;96673.44;;;-1.25;92.34
68508;BME280;55510;49.560;19.090;2023-03-03T18:10:50;96667.84;;;-1.39;91.78
68508;BME280;55510;49.560;19.090;2023-03-03T18:23:40;96683.16;;;-1.52;91.22
68508;BME280;55510;49.560;19.090;2023-03-03T18:26:42;96679.06;;;-1.55;90.96
68508;BME280;55510;49.560;19.090;2023-03-03T18:30:20;96680.22;;;-1.57;90.80
68508;BME280;55510;49.560;19.090;2023-03-03T18:36:50;96669.78;;;-1.57;91.92
68508;BME280;55510;49.560;19.090;2023-03-03T18:43:39;96691.63;;;-1.67;91.66
68508;BME280;55510;49.560;19.090;2023-03-03T18:46:47;96689.81;;;-1.66;91.34
68508;BME280;55510;49.560;19.090;2023-03-03T18:53:33;96683.78;;;-1.75;91.05
68508;BME280;55510;49.560;19.090;2023-03-03T18:56:46;96681.81;;;-1.73;91.55
68508;BME280;55510;49.560;19.090;2023-03-03T18:59:54;96694.56;;;-1.70;90.99
68508;BME280;55510;49.560;19.090;2023-03-03T19:02:58;96694.38;;;-1.68;90.43
68508;BME280;55510;49.560;19.090;2023-03-03T19:05:59;96695.22;;;-1.68;90.53
68508;BME280;55510;49.560;19.090;2023-03-03T19:09:03;96694.69;;;-1.71;90.72
68508;BME280;55510;49.560;19.090;2023-03-03T19:12:08;96697.09;;;-1.78;90.73
68508;BME280;55510;49.560;19.090;2023-03-03T19:18:59;96696.00;;;-1.76;90.78
68508;BME280;55510;49.560;19.090;2023-03-03T19:22:25;96691.75;;;-1.77;90.66
68508;BME280;55510;49.560;19.090;2023-03-03T19:25:27;96689.00;;;-1.75;90.41
68508;BME280;55510;49.560;19.090;2023-03-03T19:28:41;96690.63;;;-1.74;90.26
68508;BME280;55510;49.560;19.090;2023-03-03T19:35:23;96685.56;;;-1.76;89.93
68508;BME280;55510;49.560;19.090;2023-03-03T20:01:22;96680.00;;;-1.81;90.46
68508;BME280;55510;49.560;19.090;2023-03-03T20:07:44;96678.34;;;-1.82;90.26
68508;BME280;55510;49.560;19.090;2023-03-03T20:11:04;96670.34;;;-1.88;89.64
68508;BME280;55510;49.560;19.090;2023-03-03T20:14:09;96678.69;;;-1.85;90.03
68508;BME280;55510;49.560;19.090;2023-03-03T20:17:21;96671.50;;;-1.83;90.40
68508;BME280;55510;49.560;19.090;2023-03-03T20:20:48;96680.00;;;-1.81;89.82
68508;BME280;55510;49.560;19.090;2023-03-03T20:34:48;96663.38;;;-1.71;89.45
68508;BME280;55510;49.560;19.090;2023-03-03T20:41:35;96658.94;;;-1.79;88.06
68508;BME280;55510;49.560;19.090;2023-03-03T21:00:42;96655.44;;;-2.05;88.45
68508;BME280;55510;49.560;19.090;2023-03-03T21:03:47;96652.16;;;-2.07;88.96
68508;BME280;55510;49.560;19.090;2023-03-03T21:06:48;96652.38;;;-2.00;88.92
68508;BME280;55510;49.560;19.090;2023-03-03T21:09:49;96647.00;;;-1.98;88.45
68508;BME280;55510;49.560;19.090;2023-03-03T21:12:57;96644.22;;;-1.97;88.03
68508;BME280;55510;49.560;19.090;2023-03-03T21:16:01;96638.53;;;-1.92;87.78
68508;BME280;55510;49.560;19.090;2023-03-03T21:19:06;96640.66;;;-1.96;88.07
68508;BME280;55510;49.560;19.090;2023-03-03T21:22:09;96640.81;;;-1.97;87.91
68508;BME280;55510;49.560;19.090;2023-03-03T21:28:57;96647.47;;;-2.03;87.97
68508;BME280;55510;49.560;19.090;2023-03-03T21:32:00;96649.38;;;-2.13;87.40
68508;BME280;55510;49.560;19.090;2023-03-03T21:35:05;96647.56;;;-2.21;87.00
68508;BME280;55510;49.560;19.090;2023-03-03T21:38:06;96653.41;;;-2.27;87.28
68508;BME280;55510;49.560;19.090;2023-03-03T21:41:07;96645.84;;;-2.39;86.60
68508;BME280;55510;49.560;19.090;2023-03-03T21:44:49;96645.44;;;-2.52;86.76
68508;BME280;55510;49.560;19.090;2023-03-03T21:47:54;96644.59;;;-2.61;87.47
68508;BME280;55510;49.560;19.090;2023-03-03T21:50:56;96650.19;;;-2.74;87.56
68508;BME280;55510;49.560;19.090;2023-03-03T21:53:57;96649.69;;;-2.78;87.77
68508;BME280;55510;49.560;19.090;2023-03-03T21:56:58;96647.56;;;-2.82;87.75
68508;BME280;55510;49.560;19.090;2023-03-03T21:59:59;96640.22;;;-2.79;88.33
68508;BME280;55510;49.560;19.090;2023-03-03T22:02:59;96638.09;;;-2.83;88.54
68508;BME280;55510;49.560;19.090;2023-03-03T22:06:00;96637.28;;;-2.84;88.84
68508;BME280;55510;49.560;19.090;2023-03-03T22:09:03;96627.69;;;-2.83;88.65
68508;BME280;55510;49.560;19.090;2023-03-03T22:12:05;96631.53;;;-2.87;88.78
68508;BME280;55510;49.560;19.090;2023-03-03T22:15:06;96634.63;;;-2.92;89.05
68508;BME280;55510;49.560;19.090;2023-03-03T22:18:07;96636.91;;;-2.89;88.18
68508;BME280;55510;49.560;19.090;2023-03-03T22:21:08;96637.66;;;-2.97;88.65
68508;BME280;55510;49.560;19.090;2023-03-03T22:24:09;96627.53;;;-3.00;88.28
68508;BME280;55510;49.560;19.090;2023-03-03T22:27:09;96624.97;;;-3.18;88.10
68508;BME280;55510;49.560;19.090;2023-03-03T22:30:14;96624.25;;;-3.28;88.99
68508;BME280;55510;49.560;19.090;2023-03-03T22:33:15;96622.25;;;-3.35;89.48
68508;BME280;55510;49.560;19.090;2023-03-03T22:36:16;96620.97;;;-3.30;89.16
68508;BME280;55510;49.560;19.090;2023-03-03T22:39:18;96618.22;;;-3.29;89.13
68508;BME280;55510;49.560;19.090;2023-03-03T22:42:19;96617.56;;;-3.31;89.01
68508;BME280;55510;49.560;19.090;2023-03-03T22:45:20;96620.84;;;-3.29;89.33
68508;BME280;55510;49.560;19.090;2023-03-03T22:48:21;96620.00;;;-3.29;88.92
68508;BME280;55510;49.560;19.090;2023-03-03T22:51:25;96614.75;;;-3.38;89.33
68508;BME280;55510;49.560;19.090;2023-03-03T22:54:25;96615.94;;;-3.50;89.97
68508;BME280;55510;49.560;19.090;2023-03-03T22:57:26;96614.88;;;-3.57;90.31
68508;BME280;55510;49.560;19.090;2023-03-03T23:00:27;96612.06;;;-3.64;90.73
68508;BME280;55510;49.560;19.090;2023-03-03T23:03:28;96610.72;;;-3.68;91.89
68508;BME280;55510;49.560;19.090;2023-03-03T23:06:28;96608.19;;;-3.60;91.71
68508;BME280;55510;49.560;19.090;2023-03-03T23:09:29;96608.81;;;-3.48;90.98
68508;BME280;55510;49.560;19.090;2023-03-03T23:12:30;96612.66;;;-3.52;91.32
68508;BME280;55510;49.560;19.090;2023-03-03T23:15:31;96602.94;;;-3.50;91.77
68508;BME280;55510;49.560;19.090;2023-03-03T23:18:31;96596.59;;;-3.47;91.38
68508;BME280;55510;49.560;19.090;2023-03-03T23:21:35;96591.31;;;-3.38;91.31
68508;BME280;55510;49.560;19.090;2023-03-03T23:24:36;96589.50;;;-3.37;91.19
68508;BME280;55510;49.560;19.090;2023-03-03T23:27:36;96574.56;;;-3.35;91.55
68508;BME280;55510;49.560;19.090;2023-03-03T23:30:37;96580.59;;;-3.35;92.16
68508;BME280;55510;49.560;19.090;2023-03-03T23:33:38;96558.19;;;-3.27;90.75
68508;BME280;55510;49.560;19.090;2023-03-03T23:36:39;96568.97;;;-3.22;91.11
68508;BME280;55510;49.560;19.090;2023-03-03T23:39:40;96559.84;;;-3.26;91.50
68508;BME280;55510;49.560;19.090;2023-03-03T23:42:40;96566.97;;;-3.28;92.22
68508;BME280;55510;49.560;19.090;2023-03-03T23:45:41;96560.19;;;-3.21;91.91
68508;BME280;55510;49.560;19.090;2023-03-03T23:48:42;96564.47;;;-3.12;91.52
68508;BME280;55510;49.560;19.090;2023-03-03T23:51:42;96544.63;;;-3.13;91.54
68508;BME280;55510;49.560;19.090;2023-03-03T23:54:44;96537.94;;;-3.15;91.82
68508;BME280;55510;49.560;19.090;2023-03-03T23:57:45;96539.72;;;-3.16;91.67
